sensor_id;sensor_type;location;lat;lon;timestamp;pressure;altitude;pressure_sealevel;temperature;humidity
74621;BME280;75998;47.550;19.254;2024-03-23T00:53:48;98902.47;;;6.42;76.77
74621;BME280;75998;47.550;19.254;2024-03-23T00:56:20;98908.09;;;6.50;76.61
74621;BME280;75998;47.550;19.254;2024-03-23T00:58:52;98821.59;;;5.84;76.59
74621;BME280;75998;47.550;19.254;2024-03-23T01:01:26;98896.13;;;6.47;77.08
74621;BME280;75998;47.550;19.254;2024-03-23T01:04:00;98861.78;;;6.26;76.82
74621;BME280;75998;47.550;19.254;2024-03-23T01:06:35;98839.91;;;6.15;76.47
74621;BME280;75998;47.550;19.254;2024-03-23T01:09:24;98843.88;;;6.38;77.19
74621;BME280;75998;47.550;19.254;2024-03-23T01:12:05;98880.47;;;6.65;76.34
74621;BME280;75998;47.550;19.254;2024-03-23T01:14:47;98881.47;;;6.78;76.07
74621;BME280;75998;47.550;19.254;2024-03-23T01:17:22;98777.31;;;6.05;77.11
74621;BME280;75998;47.550;19.254;2024-03-23T01:19:50;98890.25;;;6.75;76.87
74621;BME280;75998;47.550;19.254;2024-03-23T01:22:25;98820.94;;;6.62;75.53
74621;BME280;75998;47.550;19.254;2024-03-23T01:25:14;98796.00;;;6.43;76.53
74621;BME280;75998;47.550;19.254;2024-03-23T01:27:47;98857.50;;;6.89;75.00
74621;BME280;75998;47.550;19.254;2024-03-23T01:30:21;98769.44;;;6.22;76.46
74621;BME280;75998;47.550;19.254;2024-03-23T01:32:58;98863.38;;;6.92;75.73
74621;BME280;75998;47.550;19.254;2024-03-23T01:35:41;98797.00;;;6.72;75.88
74621;BME280;75998;47.550;19.254;2024-03-23T01:38:07;98752.72;;;6.28;75.43
74621;BME280;75998;47.550;19.254;2024-03-23T01:40:38;98862.75;;;7.49;75.06
74621;BME280;75998;47.550;19.254;2024-03-23T01:43:33;98814.84;;;7.53;73.75
74621;BME280;75998;47.550;19.254;2024-03-23T01:46:02;98857.34;;;7.96;73.21
74621;BME280;75998;47.550;19.254;2024-03-23T01:48:41;98832.16;;;7.68;73.40
74621;BME280;75998;47.550;19.254;2024-03-23T01:51:15;98856.75;;;7.77;73.95
74621;BME280;75998;47.550;19.254;2024-03-23T01:54:01;98767.44;;;7.19;74.20
74621;BME280;75998;47.550;19.254;2024-03-23T01:56:34;98821.16;;;7.49;74.81
74621;BME280;75998;47.550;19.254;2024-03-23T01:59:26;98815.31;;;7.45;74.42
74621;BME280;75998;47.550;19.254;2024-03-23T02:02:04;98807.09;;;7.37;74.49
74621;BME280;75998;47.550;19.254;2024-03-23T02:04:30;98707.28;;;6.21;75.95
74621;BME280;75998;47.550;19.254;2024-03-23T02:07:06;98683.84;;;5.91;76.29
74621;BME280;75998;47.550;19.254;2024-03-23T02:09:44;98624.19;;;5.59;76.05
74621;BME280;75998;47.550;19.254;2024-03-23T02:12:19;98785.34;;;6.48;75.52
74621;BME280;75998;47.550;19.254;2024-03-23T02:15:03;98724.09;;;5.98;76.83
74621;BME280;75998;47.550;19.254;2024-03-23T02:17:39;98830.81;;;6.55;77.02
74621;BME280;75998;47.550;19.254;2024-03-23T02:20:11;98785.88;;;6.23;77.45
74621;BME280;75998;47.550;19.254;2024-03-23T02:22:42;98692.44;;;5.75;78.71
74621;BME280;75998;47.550;19.254;2024-03-23T02:25:11;98792.22;;;6.49;77.97
74621;BME280;75998;47.550;19.254;2024-03-23T02:27:51;98809.91;;;6.88;77.60
74621;BME280;75998;47.550;19.254;2024-03-23T02:30:26;98790.06;;;6.87;77.13
74621;BME280;75998;47.550;19.254;2024-03-23T02:32:51;98722.88;;;6.67;77.22
74621;BME280;75998;47.550;19.254;2024-03-23T02:35:19;98812.28;;;7.23;77.49
74621;BME280;75998;47.550;19.254;2024-03-23T02:37:51;98811.47;;;7.37;76.66
74621;BME280;75998;47.550;19.254;2024-03-23T02:40:20;98730.56;;;6.98;76.66
74621;BME280;75998;47.550;19.254;2024-03-23T02:42:51;98780.94;;;7.26;77.16
74621;BME280;75998;47.550;19.254;2024-03-23T02:45:35;98805.00;;;7.44;77.48
74621;BME280;75998;47.550;19.254;2024-03-23T02:48:10;98709.00;;;6.82;77.34
74621;BME280;75998;47.550;19.254;2024-03-23T02:50:44;98611.31;;;6.21;77.47
74621;BME280;75998;47.550;19.254;2024-03-23T02:53:14;98701.94;;;6.70;77.54
74621;BME280;75998;47.550;19.254;2024-03-23T02:55:53;98699.22;;;6.71;77.99
74621;BME280;75998;47.550;19.254;2024-03-23T02:58:24;98774.59;;;7.16;78.11
74621;BME280;75998;47.550;19.254;2024-03-23T03:00:53;98770.09;;;7.03;78.44
74621;BME280;75998;47.550;19.254;2024-03-23T03:03:27;98671.44;;;6.43;78.12
74621;BME280;75998;47.550;19.254;2024-03-23T03:05:58;98505.22;;;5.24;78.46
74621;BME280;75998;47.550;19.254;2024-03-23T03:08:26;98695.19;;;6.51;78.54
74621;BME280;75998;47.550;19.254;2024-03-23T03:10:58;98755.38;;;6.88;78.79
74621;BME280;75998;47.550;19.254;2024-03-23T03:13:37;98717.56;;;6.68;79.13
74621;BME280;75998;47.550;19.254;2024-03-23T03:16:08;98783.91;;;7.04;79.18
74621;BME280;75998;47.550;19.254;2024-03-23T03:18:37;98487.47;;;5.16;78.86
74621;BME280;75998;47.550;19.254;2024-03-23T03:21:10;98760.34;;;6.93;78.72
74621;BME280;75998;47.550;19.254;2024-03-23T03:23:57;98730.16;;;6.76;78.85
74621;BME280;75998;47.550;19.254;2024-03-23T03:26:26;98751.97;;;6.88;79.18
74621;BME280;75998;47.550;19.254;2024-03-23T03:29:08;98767.69;;;7.00;78.88
74621;BME280;75998;47.550;19.254;2024-03-23T03:31:37;98687.22;;;6.54;79.05
74621;BME280;75998;47.550;19.254;2024-03-23T03:34:12;98706.41;;;6.52;79.50
74621;BME280;75998;47.550;19.254;2024-03-23T03:36:40;98723.97;;;6.63;79.59
74621;BME280;75998;47.550;19.254;2024-03-23T03:39:06;98723.03;;;6.64;79.22
74621;BME280;75998;47.550;19.254;2024-03-23T03:41:35;98741.66;;;6.86;79.37
74621;BME280;75998;47.550;19.254;2024-03-23T03:44:07;98716.75;;;6.68;79.22
74621;BME280;75998;47.550;19.254;2024-03-23T03:46:39;98677.34;;;6.45;79.16
74621;BME280;75998;47.550;19.254;2024-03-23T03:49:17;98771.06;;;7.17;78.58
74621;BME280;75998;47.550;19.254;2024-03-23T03:51:46;98730.34;;;6.87;78.92
74621;BME280;75998;47.550;19.254;2024-03-23T03:54:18;98758.59;;;7.07;79.05
74621;BME280;75998;47.550;19.254;2024-03-23T03:56:49;98756.66;;;7.11;79.04
74621;BME280;75998;47.550;19.254;2024-03-23T03:59:25;98693.72;;;6.62;79.19
74621;BME280;75998;47.550;19.254;2024-03-23T04:01:59;98689.03;;;6.68;78.50
74621;BME280;75998;47.550;19.254;2024-03-23T04:04:32;98542.25;;;5.72;78.96
74621;BME280;75998;47.550;19.254;2024-03-23T04:07:03;98551.25;;;5.67;78.94
74621;BME280;75998;47.550;19.254;2024-03-23T04:09:42;98761.50;;;6.87;79.14
74621;BME280;75998;47.550;19.254;2024-03-23T04:12:17;98761.53;;;6.71;79.47
74621;BME280;75998;47.550;19.254;2024-03-23T04:14:48;98742.00;;;6.50;80.05
74621;BME280;75998;47.550;19.254;2024-03-23T04:17:26;98762.13;;;6.76;79.72
74621;BME280;75998;47.550;19.254;2024-03-23T04:20:35;98754.91;;;6.81;79.69
74621;BME280;75998;47.550;19.254;2024-03-23T04:23:08;98737.13;;;6.59;79.87
74621;BME280;75998;47.550;19.254;2024-03-23T04:25:43;98739.75;;;6.74;79.58
74621;BME280;75998;47.550;19.254;2024-03-23T04:28:09;98695.28;;;6.50;79.63
74621;BME280;75998;47.550;19.254;2024-03-23T04:30:40;98668.66;;;6.46;79.77
74621;BME280;75998;47.550;19.254;2024-03-23T04:33:20;98704.69;;;6.67;79.64
74621;BME280;75998;47.550;19.254;2024-03-23T04:35:54;98737.47;;;6.83;80.31
74621;BME280;75998;47.550;19.254;2024-03-23T04:38:34;98723.50;;;6.86;79.70
74621;BME280;75998;47.550;19.254;2024-03-23T04:41:13;98694.56;;;6.62;80.41
74621;BME280;75998;47.550;19.254;2024-03-23T04:43:52;98674.91;;;6.58;80.04
74621;BME280;75998;47.550;19.254;2024-03-23T04:46:44;98733.25;;;6.97;79.69
74621;BME280;75998;47.550;19.254;2024-03-23T04:49:12;98632.22;;;6.48;79.11
74621;BME280;75998;47.550;19.254;2024-03-23T04:51:44;98728.63;;;7.02;79.71
74621;BME280;75998;47.550;19.254;2024-03-23T04:54:19;98713.25;;;7.13;79.24
74621;BME280;75998;47.550;19.254;2024-03-23T04:57:11;98625.75;;;6.55;78.94
74621;BME280;75998;47.550;19.254;2024-03-23T04:59:42;98521.31;;;6.07;78.96
74621;BME280;75998;47.550;19.254;2024-03-23T05:02:24;98694.97;;;7.15;78.69
74621;BME280;75998;47.550;19.254;2024-03-23T05:04:59;98741.94;;;7.26;78.61
74621;BME280;75998;47.550;19.254;2024-03-23T05:07:36;98678.72;;;7.11;77.95
74621;BME280;75998;47.550;19.254;2024-03-23T05:10:20;98682.25;;;7.10;78.43
74621;BME280;75998;47.550;19.254;2024-03-23T05:13:05;98734.06;;;7.42;78.84
74621;BME280;75998;47.550;19.254;2024-03-23T05:15:40;98625.47;;;6.90;78.50
74621;BME280;75998;47.550;19.254;2024-03-23T05:18:24;98505.06;;;6.19;78.23
74621;BME280;75998;47.550;19.254;2024-03-23T05:20:58;98720.97;;;7.58;77.96
74621;BME280;75998;47.550;19.254;2024-03-23T05:23:37;98679.28;;;7.30;78.17
74621;BME280;75998;47.550;19.254;2024-03-23T05:26:25;98719.41;;;7.55;78.42
74621;BME280;75998;47.550;19.254;2024-03-23T05:28:58;98563.88;;;6.63;78.38
74621;BME280;75998;47.550;19.254;2024-03-23T05:31:33;98633.06;;;7.21;77.99
74621;BME280;75998;47.550;19.254;2024-03-23T05:34:04;98728.69;;;7.73;79.25
74621;BME280;75998;47.550;19.254;2024-03-23T05:36:33;98696.47;;;7.62;78.75
74621;BME280;75998;47.550;19.254;2024-03-23T05:39:16;98726.16;;;7.86;78.63
74621;BME280;75998;47.550;19.254;2024-03-23T05:41:47;98564.97;;;6.88;78.86
74621;BME280;75998;47.550;19.254;2024-03-23T05:44:29;98724.19;;;7.90;78.91
74621;BME280;75998;47.550;19.254;2024-03-23T05:47:00;98698.75;;;7.81;79.18
74621;BME280;75998;47.550;19.254;2024-03-23T05:49:31;98708.97;;;7.98;79.63
74621;BME280;75998;47.550;19.254;2024-03-23T05:52:00;98633.81;;;7.52;79.56
74621;BME280;75998;47.550;19.254;2024-03-23T05:54:37;98571.19;;;7.14;79.94
74621;BME280;75998;47.550;19.254;2024-03-23T05:57:09;98589.91;;;7.33;80.15
74621;BME280;75998;47.550;19.254;2024-03-23T05:59:41;98717.75;;;8.10;80.04
74621;BME280;75998;47.550;19.254;2024-03-23T06:02:16;98656.22;;;7.82;79.56
74621;BME280;75998;47.550;19.254;2024-03-23T06:04:50;98702.97;;;8.10;80.03
74621;BME280;75998;47.550;19.254;2024-03-23T06:07:24;98676.88;;;7.97;80.03
74621;BME280;75998;47.550;19.254;2024-03-23T06:09:55;98665.75;;;7.95;79.58
74621;BME280;75998;47.550;19.254;2024-03-23T06:12:37;98568.28;;;7.33;80.21
74621;BME280;75998;47.550;19.254;2024-03-23T06:15:04;98669.25;;;8.09;80.31
74621;BME280;75998;47.550;19.254;2024-03-23T06:17:45;98705.13;;;8.31;80.09
74621;BME280;75998;47.550;19.254;2024-03-23T06:20:28;98700.88;;;8.30;80.21
74621;BME280;75998;47.550;19.254;2024-03-23T06:22:57;98646.59;;;7.96;80.61
74621;BME280;75998;47.550;19.254;2024-03-23T06:25:48;98702.94;;;8.39;80.74
74621;BME280;75998;47.550;19.254;2024-03-23T06:28:23;98687.94;;;8.42;80.78
74621;BME280;75998;47.550;19.254;2024-03-23T06:30:49;98689.63;;;8.29;80.61
74621;BME280;75998;47.550;19.254;2024-03-23T06:33:20;98649.50;;;8.19;80.43
74621;BME280;75998;47.550;19.254;2024-03-23T06:36:05;98611.56;;;8.02;80.56
74621;BME280;75998;47.550;19.254;2024-03-23T06:38:44;98677.66;;;8.54;80.53
74621;BME280;75998;47.550;19.254;2024-03-23T06:41:13;98681.75;;;8.58;80.83
74621;BME280;75998;47.550;19.254;2024-03-23T06:43:52;98626.47;;;8.40;80.50
74621;BME280;75998;47.550;19.254;2024-03-23T06:46:21;98666.16;;;8.96;79.59
74621;BME280;75998;47.550;19.254;2024-03-23T06:48:58;98646.28;;;9.08;79.48
74621;BME280;75998;47.550;19.254;2024-03-23T06:52:02;98644.59;;;9.69;77.97
74621;BME280;75998;47.550;19.254;2024-03-23T06:54:40;98663.66;;;10.19;75.67
74621;BME280;75998;47.550;19.254;2024-03-23T06:57:14;98670.56;;;10.20;75.39
74621;BME280;75998;47.550;19.254;2024-03-23T06:59:54;98660.75;;;9.87;76.54
74621;BME280;75998;47.550;19.254;2024-03-23T07:02:26;98664.47;;;9.96;76.83
74621;BME280;75998;47.550;19.254;2024-03-23T07:04:59;98670.81;;;10.04;76.08
74621;BME280;75998;47.550;19.254;2024-03-23T07:07:34;98652.47;;;9.93;76.44
74621;BME280;75998;47.550;19.254;2024-03-23T07:10:03;98658.44;;;10.19;75.56
74621;BME280;75998;47.550;19.254;2024-03-23T07:12:43;98611.84;;;9.78;75.74
74621;BME280;75998;47.550;19.254;2024-03-23T07:15:24;98655.72;;;10.21;75.99
74621;BME280;75998;47.550;19.254;2024-03-23T07:17:52;98663.31;;;10.37;75.05
74621;BME280;75998;47.550;19.254;2024-03-23T07:20:24;98583.16;;;10.13;74.37
74621;BME280;75998;47.550;19.254;2024-03-23T07:22:55;98483.63;;;9.47;73.08
74621;BME280;75998;47.550;19.254;2024-03-23T07:25:23;98609.63;;;10.32;72.43
74621;BME280;75998;47.550;19.254;2024-03-23T07:27:53;98574.19;;;10.17;73.10
74621;BME280;75998;47.550;19.254;2024-03-23T07:30:22;98634.59;;;10.83;71.66
74621;BME280;75998;47.550;19.254;2024-03-23T07:32:54;98558.56;;;11.20;70.71
74621;BME280;75998;47.550;19.254;2024-03-23T07:35:24;98540.25;;;10.75;69.90
74621;BME280;75998;47.550;19.254;2024-03-23T07:37:53;98623.75;;;12.00;69.32
74621;BME280;75998;47.550;19.254;2024-03-23T07:40:22;98608.56;;;12.47;67.37
74621;BME280;75998;47.550;19.254;2024-03-23T07:42:48;98607.00;;;12.23;68.17
74621;BME280;75998;47.550;19.254;2024-03-23T07:45:16;98571.66;;;11.74;68.75
74621;BME280;75998;47.550;19.254;2024-03-23T07:47:45;98576.50;;;11.47;69.41
74621;BME280;75998;47.550;19.254;2024-03-23T07:50:13;98619.84;;;11.94;69.69
74621;BME280;75998;47.550;19.254;2024-03-23T07:52:49;98591.19;;;11.93;68.59
74621;BME280;75998;47.550;19.254;2024-03-23T07:55:21;98602.31;;;12.06;68.37
74621;BME280;75998;47.550;19.254;2024-03-23T07:57:51;98586.75;;;11.93;68.35
74621;BME280;75998;47.550;19.254;2024-03-23T08:00:26;98493.59;;;11.91;67.54
74621;BME280;75998;47.550;19.254;2024-03-23T08:02:58;98471.47;;;11.84;68.05
74621;BME280;75998;47.550;19.254;2024-03-23T08:05:26;98582.75;;;12.63;67.67
74621;BME280;75998;47.550;19.254;2024-03-23T08:07:59;98468.38;;;11.90;67.35
74621;BME280;75998;47.550;19.254;2024-03-23T08:10:28;98517.56;;;12.07;67.24
74621;BME280;75998;47.550;19.254;2024-03-23T08:13:00;98475.59;;;11.97;66.72
74621;BME280;75998;47.550;19.254;2024-03-23T08:15:30;98595.31;;;12.90;66.18
74621;BME280;75998;47.550;19.254;2024-03-23T08:17:55;98510.06;;;12.65;66.20
74621;BME280;75998;47.550;19.254;2024-03-23T08:20:21;98590.88;;;13.12;66.43
74621;BME280;75998;47.550;19.254;2024-03-23T08:22:46;98433.53;;;12.72;64.69
74621;BME280;75998;47.550;19.254;2024-03-23T08:25:12;98475.19;;;13.05;64.85
74621;BME280;75998;47.550;19.254;2024-03-23T08:27:44;98524.03;;;13.37;64.27
74621;BME280;75998;47.550;19.254;2024-03-23T08:30:10;98535.88;;;13.91;63.72
74621;BME280;75998;47.550;19.254;2024-03-23T08:32:36;98557.53;;;14.71;61.44
74621;BME280;75998;47.550;19.254;2024-03-23T08:35:02;98558.53;;;14.50;61.59
74621;BME280;75998;47.550;19.254;2024-03-23T08:37:27;98546.56;;;14.75;60.34
74621;BME280;75998;47.550;19.254;2024-03-23T08:39:56;98487.94;;;14.55;59.93
74621;BME280;75998;47.550;19.254;2024-03-23T08:42:21;98525.13;;;15.35;58.50
74621;BME280;75998;47.550;19.254;2024-03-23T08:44:49;98516.47;;;15.25;58.39
74621;BME280;75998;47.550;19.254;2024-03-23T08:47:21;98488.19;;;14.72;58.76
74621;BME280;75998;47.550;19.254;2024-03-23T08:49:46;98487.69;;;14.86;59.46
74621;BME280;75998;47.550;19.254;2024-03-23T08:52:15;98469.41;;;14.94;58.55
74621;BME280;75998;47.550;19.254;2024-03-23T08:54:43;98526.59;;;14.92;60.05
74621;BME280;75998;47.550;19.254;2024-03-23T08:57:11;98538.25;;;15.17;57.89
74621;BME280;75998;47.550;19.254;2024-03-23T08:59:37;98532.50;;;15.32;57.77
74621;BME280;75998;47.550;19.254;2024-03-23T09:02:03;98445.28;;;14.71;57.60
74621;BME280;75998;47.550;19.254;2024-03-23T09:04:31;98479.19;;;15.02;58.29
74621;BME280;75998;47.550;19.254;2024-03-23T09:06:57;98437.56;;;15.15;57.95
74621;BME280;75998;47.550;19.254;2024-03-23T09:09:24;98457.88;;;14.95;58.09
74621;BME280;75998;47.550;19.254;2024-03-23T09:11:49;98538.66;;;15.50;57.28
74621;BME280;75998;47.550;19.254;2024-03-23T09:14:22;98526.09;;;15.62;57.28
74621;BME280;75998;47.550;19.254;2024-03-23T09:16:50;98522.06;;;16.21;56.75
74621;BME280;75998;47.550;19.254;2024-03-23T09:19:19;98442.22;;;15.67;57.18
74621;BME280;75998;47.550;19.254;2024-03-23T09:21:47;98519.41;;;16.21;57.14
74621;BME280;75998;47.550;19.254;2024-03-23T09:24:16;98471.50;;;16.52;55.07
74621;BME280;75998;47.550;19.254;2024-03-23T09:26:41;98510.66;;;16.90;53.90
74621;BME280;75998;47.550;19.254;2024-03-23T09:29:07;98430.81;;;16.54;54.23
74621;BME280;75998;47.550;19.254;2024-03-23T09:31:33;98418.66;;;16.35;55.10
74621;BME280;75998;47.550;19.254;2024-03-23T09:33:58;98449.09;;;16.82;54.61
74621;BME280;75998;47.550;19.254;2024-03-23T09:36:24;98439.91;;;16.60;54.28
74621;BME280;75998;47.550;19.254;2024-03-23T09:38:54;98310.59;;;15.75;53.95
74621;BME280;75998;47.550;19.254;2024-03-23T09:41:22;98495.75;;;16.29;55.09
74621;BME280;75998;47.550;19.254;2024-03-23T09:43:48;98464.00;;;16.39;54.86
74621;BME280;75998;47.550;19.254;2024-03-23T09:46:14;98398.50;;;15.74;55.80
74621;BME280;75998;47.550;19.254;2024-03-23T09:48:41;98463.28;;;16.29;55.00
74621;BME280;75998;47.550;19.254;2024-03-23T09:51:09;98384.56;;;15.64;55.82
74621;BME280;75998;47.550;19.254;2024-03-23T09:53:34;98437.41;;;16.32;55.73
74621;BME280;75998;47.550;19.254;2024-03-23T09:56:00;98434.84;;;16.14;55.93
74621;BME280;75998;47.550;19.254;2024-03-23T09:58:26;98427.94;;;16.13;55.59
74621;BME280;75998;47.550;19.254;2024-03-23T10:00:51;98315.91;;;15.83;55.64
74621;BME280;75998;47.550;19.254;2024-03-23T10:03:22;98453.03;;;17.28;55.34
74621;BME280;75998;47.550;19.254;2024-03-23T10:05:47;98454.91;;;17.36;55.04
74621;BME280;75998;47.550;19.254;2024-03-23T10:08:25;98396.59;;;17.13;54.32
74621;BME280;75998;47.550;19.254;2024-03-23T10:10:51;98235.69;;;16.62;52.06
74621;BME280;75998;47.550;19.254;2024-03-23T10:13:27;98401.31;;;17.93;50.91
74621;BME280;75998;47.550;19.254;2024-03-23T10:15:56;98428.78;;;18.55;50.54
74621;BME280;75998;47.550;19.254;2024-03-23T10:18:23;98399.09;;;19.16;50.60
74621;BME280;75998;47.550;19.254;2024-03-23T10:23:35;98350.72;;;19.22;49.49
74621;BME280;75998;47.550;19.254;2024-03-23T10:26:20;98339.53;;;19.12;48.46
74621;BME280;75998;47.550;19.254;2024-03-23T10:28:57;98348.25;;;18.97;48.77
74621;BME280;75998;47.550;19.254;2024-03-23T10:31:26;98411.94;;;19.96;47.63
74621;BME280;75998;47.550;19.254;2024-03-23T10:33:51;98363.38;;;19.95;47.09
74621;BME280;75998;47.550;19.254;2024-03-23T10:36:23;98381.94;;;19.35;47.45
74621;BME280;75998;47.550;19.254;2024-03-23T10:38:53;98329.09;;;19.56;47.47
74621;BME280;75998;47.550;19.254;2024-03-23T10:41:20;98323.28;;;19.38;46.20
74621;BME280;75998;47.550;19.254;2024-03-23T10:43:47;98390.88;;;19.80;46.07
74621;BME280;75998;47.550;19.254;2024-03-23T10:46:13;98322.81;;;19.34;45.86
74621;BME280;75998;47.550;19.254;2024-03-23T10:48:38;98358.47;;;19.69;44.59
74621;BME280;75998;47.550;19.254;2024-03-23T10:51:07;98371.03;;;19.76;44.82
74621;BME280;75998;47.550;19.254;2024-03-23T10:53:36;98291.28;;;19.24;44.83
74621;BME280;75998;47.550;19.254;2024-03-23T10:56:02;98355.53;;;19.87;43.81
74621;BME280;75998;47.550;19.254;2024-03-23T10:58:48;98319.81;;;19.37;43.15
74621;BME280;75998;47.550;19.254;2024-03-23T11:01:15;98268.69;;;18.91;44.42
74621;BME280;75998;47.550;19.254;2024-03-23T11:03:51;98313.88;;;19.12;43.68
74621;BME280;75998;47.550;19.254;2024-03-23T11:06:40;98323.22;;;19.69;42.99
74621;BME280;75998;47.550;19.254;2024-03-23T11:14:50;98269.44;;;18.76;41.31
74621;BME280;75998;47.550;19.254;2024-03-23T11:17:20;98332.41;;;19.12;41.17
74621;BME280;75998;47.550;19.254;2024-03-23T11:19:59;98264.56;;;18.57;42.28
74621;BME280;75998;47.550;19.254;2024-03-23T11:22:40;98323.06;;;19.01;41.36
74621;BME280;75998;47.550;19.254;2024-03-23T11:25:17;98303.03;;;18.99;42.33
74621;BME280;75998;47.550;19.254;2024-03-23T11:27:45;98272.03;;;19.08;42.34
74621;BME280;75998;47.550;19.254;2024-03-23T11:30:16;98264.69;;;18.95;42.03
74621;BME280;75998;47.550;19.254;2024-03-23T11:32:45;98277.22;;;19.01;42.80
74621;BME280;75998;47.550;19.254;2024-03-23T11:35:31;98262.53;;;19.36;43.27
74621;BME280;75998;47.550;19.254;2024-03-23T11:38:03;98288.94;;;19.67;42.53
74621;BME280;75998;47.550;19.254;2024-03-23T11:40:29;98164.22;;;18.78;42.47
74621;BME280;75998;47.550;19.254;2024-03-23T11:42:59;98144.38;;;18.28;43.61
74621;BME280;75998;47.550;19.254;2024-03-23T11:45:28;98217.06;;;18.64;43.89
74621;BME280;75998;47.550;19.254;2024-03-23T11:50:43;98282.50;;;19.62;41.51
74621;BME280;75998;47.550;19.254;2024-03-23T11:53:27;98260.00;;;19.20;43.18
74621;BME280;75998;47.550;19.254;2024-03-23T11:55:57;98266.00;;;19.37;42.98
74621;BME280;75998;47.550;19.254;2024-03-23T11:58:24;98253.72;;;19.21;43.16
74621;BME280;75998;47.550;19.254;2024-03-23T12:03:18;98173.09;;;18.86;42.60
74621;BME280;75998;47.550;19.254;2024-03-23T12:05:50;98239.28;;;19.61;42.43
74621;BME280;75998;47.550;19.254;2024-03-23T12:08:32;98206.66;;;19.08;41.94
74621;BME280;75998;47.550;19.254;2024-03-23T12:11:09;98206.00;;;19.44;41.85
74621;BME280;75998;47.550;19.254;2024-03-23T12:13:37;98163.66;;;19.06;40.99
74621;BME280;75998;47.550;19.254;2024-03-23T12:16:34;98227.19;;;19.44;42.10
74621;BME280;75998;47.550;19.254;2024-03-23T12:19:05;98189.59;;;19.11;41.27
74621;BME280;75998;47.550;19.254;2024-03-23T12:21:33;98185.84;;;19.20;42.48
74621;BME280;75998;47.550;19.254;2024-03-23T12:24:03;98211.47;;;19.42;42.29
74621;BME280;75998;47.550;19.254;2024-03-23T12:26:32;98187.16;;;19.24;41.27
74621;BME280;75998;47.550;19.254;2024-03-23T12:28:57;98201.13;;;19.33;40.41
74621;BME280;75998;47.550;19.254;2024-03-23T12:31:24;98200.09;;;19.19;40.34
74621;BME280;75998;47.550;19.254;2024-03-23T12:33:51;98201.22;;;19.24;39.58
74621;BME280;75998;47.550;19.254;2024-03-23T12:36:17;98151.09;;;18.85;40.12
74621;BME280;75998;47.550;19.254;2024-03-23T12:38:48;98193.22;;;19.10;40.37
74621;BME280;75998;47.550;19.254;2024-03-23T12:41:13;98185.13;;;19.11;40.13
74621;BME280;75998;47.550;19.254;2024-03-23T12:43:38;98186.09;;;19.10;39.85
74621;BME280;75998;47.550;19.254;2024-03-23T12:46:06;98160.22;;;19.20;40.50
74621;BME280;75998;47.550;19.254;2024-03-23T12:48:33;98084.41;;;18.67;39.83
74621;BME280;75998;47.550;19.254;2024-03-23T12:51:01;98136.59;;;18.96;40.70
74621;BME280;75998;47.550;19.254;2024-03-23T12:53:29;98179.69;;;19.28;40.12
74621;BME280;75998;47.550;19.254;2024-03-23T12:55:55;98134.41;;;18.85;40.30
74621;BME280;75998;47.550;19.254;2024-03-23T12:58:22;98156.50;;;18.92;40.58
74621;BME280;75998;47.550;19.254;2024-03-23T13:00:47;98047.59;;;18.42;40.72
74621;BME280;75998;47.550;19.254;2024-03-23T13:03:13;98102.91;;;18.67;40.88
74621;BME280;75998;47.550;19.254;2024-03-23T13:05:40;98124.53;;;18.55;41.59
74621;BME280;75998;47.550;19.254;2024-03-23T13:08:11;98059.75;;;18.28;41.12
74621;BME280;75998;47.550;19.254;2024-03-23T13:10:37;98157.31;;;18.92;41.42
74621;BME280;75998;47.550;19.254;2024-03-23T13:13:02;98117.28;;;18.49;42.37
74621;BME280;75998;47.550;19.254;2024-03-23T13:15:28;98064.59;;;18.25;42.31
74621;BME280;75998;47.550;19.254;2024-03-23T13:17:53;98067.81;;;18.35;42.35
74621;BME280;75998;47.550;19.254;2024-03-23T13:20:21;98106.38;;;18.67;43.01
74621;BME280;75998;47.550;19.254;2024-03-23T13:22:47;98106.75;;;18.64;42.89
74621;BME280;75998;47.550;19.254;2024-03-23T13:25:12;98040.72;;;18.33;42.04
74621;BME280;75998;47.550;19.254;2024-03-23T13:27:38;98075.44;;;18.53;42.18
74621;BME280;75998;47.550;19.254;2024-03-23T13:30:07;98132.94;;;18.82;41.51
74621;BME280;75998;47.550;19.254;2024-03-23T13:32:35;98124.06;;;18.75;42.67
74621;BME280;75998;47.550;19.254;2024-03-23T13:35:01;98025.53;;;18.12;42.96
74621;BME280;75998;47.550;19.254;2024-03-23T13:37:29;98052.09;;;18.34;42.81
74621;BME280;75998;47.550;19.254;2024-03-23T13:39:54;98083.25;;;18.46;42.59
74621;BME280;75998;47.550;19.254;2024-03-23T13:42:20;98101.97;;;18.45;43.07
74621;BME280;75998;47.550;19.254;2024-03-23T13:44:45;98035.16;;;18.05;41.73
74621;BME280;75998;47.550;19.254;2024-03-23T13:47:18;98097.25;;;18.55;42.73
74621;BME280;75998;47.550;19.254;2024-03-23T13:49:44;98051.59;;;18.15;44.73
74621;BME280;75998;47.550;19.254;2024-03-23T13:52:11;98110.25;;;18.42;45.67
74621;BME280;75998;47.550;19.254;2024-03-23T13:54:40;98024.81;;;17.95;44.97
74621;BME280;75998;47.550;19.254;2024-03-23T13:57:10;98105.19;;;18.32;43.90
74621;BME280;75998;47.550;19.254;2024-03-23T13:59:38;97991.28;;;17.65;44.21
74621;BME280;75998;47.550;19.254;2024-03-23T14:02:04;98090.34;;;18.31;43.85
74621;BME280;75998;47.550;19.254;2024-03-23T14:04:34;98080.22;;;18.12;46.46
74621;BME280;75998;47.550;19.254;2024-03-23T14:06:59;98101.16;;;18.21;46.03
74621;BME280;75998;47.550;19.254;2024-03-23T14:09:25;98060.16;;;17.94;44.26
74621;BME280;75998;47.550;19.254;2024-03-23T14:11:51;98064.50;;;18.10;42.58
74621;BME280;75998;47.550;19.254;2024-03-23T14:14:19;98028.31;;;17.88;42.34
74621;BME280;75998;47.550;19.254;2024-03-23T14:16:47;98048.53;;;18.03;41.71
74621;BME280;75998;47.550;19.254;2024-03-23T14:19:13;98050.06;;;17.98;42.08
74621;BME280;75998;47.550;19.254;2024-03-23T14:21:38;98071.03;;;18.22;41.70
74621;BME280;75998;47.550;19.254;2024-03-23T14:24:07;98052.13;;;18.11;41.54
74621;BME280;75998;47.550;19.254;2024-03-23T14:26:34;97961.69;;;17.46;42.32